Time;durP1;ratioP1;P1;durP2;ratioP2;P2;SDS_P1;SDS_P2;PMS_P1;PMS_P2;Temp;Humidity;BMP_temperature;BMP_pressure;BME280_temperature;BME280_humidity;BME280_pressure;Samples;Min_cycle;Max_cycle;Signal;HPM_P1;HPM_P2
2022/09/03 00:01:24;;;;;;;6.88;3.08;;;10.80;99.90;;;;;;4990821;28;20026;-55
2022/09/03 00:04:00;;;;;;;10.20;2.67;;;10.70;99.90;;;;;;4973204;28;20092;-55
2022/09/03 00:06:39;;;;;;;10.00;2.80;;;10.80;99.90;;;;;;4990965;28;20434;-54
2022/09/03 00:09:14;;;;;;;8.10;2.72;;;10.80;99.90;;;;;;4990824;28;20033;-55
2022/09/03 00:11:54;;;;;;;5.68;2.92;;;10.80;99.90;;;;;;4990664;28;20042;-55
2022/09/03 00:14:35;;;;;;;8.05;2.40;;;10.70;99.90;;;;;;4990756;28;20023;-55
2022/09/03 00:17:33;;;;;;;8.45;3.17;;;10.80;99.90;;;;;;4990802;28;20026;-56
2022/09/03 00:20:07;;;;;;;6.60;2.97;;;10.70;99.90;;;;;;4990444;28;20530;-56
2022/09/03 00:22:38;;;;;;;7.82;3.05;;;10.60;99.90;;;;;;4990527;28;20018;-57
2022/09/03 00:25:10;;;;;;;6.78;2.97;;;10.60;99.90;;;;;;4973199;28;20037;-56
2022/09/03 00:27:39;;;;;;;9.00;3.42;;;10.50;99.90;;;;;;4972987;28;20061;-56
2022/09/03 00:30:16;;;;;;;5.22;2.53;;;10.60;99.90;;;;;;4990395;28;20026;-56
2022/09/03 00:32:53;;;;;;;8.57;3.00;;;10.50;99.90;;;;;;4990905;28;20042;-56
2022/09/03 00:35:25;;;;;;;8.68;3.10;;;10.50;99.90;;;;;;4972745;28;20478;-56
2022/09/03 00:37:52;;;;;;;6.03;2.58;;;10.40;99.90;;;;;;4990569;28;20034;-56
2022/09/03 00:40:46;;;;;;;7.60;2.70;;;10.30;99.90;;;;;;4990982;28;20022;-56
2022/09/03 00:43:25;;;;;;;7.68;2.88;;;10.30;99.90;;;;;;4990610;28;20089;-55
2022/09/03 00:46:18;;;;;;;6.35;2.92;;;10.20;99.90;;;;;;4991167;28;20030;-55
2022/09/03 00:49:05;;;;;;;8.70;3.40;;;10.20;99.90;;;;;;4993952;28;20030;-55
2022/09/03 00:51:43;;;;;;;7.13;2.55;;;10.10;99.90;;;;;;4990694;28;20037;-55
2022/09/03 00:54:17;;;;;;;6.93;2.70;;;10.10;99.90;;;;;;4990969;28;20053;-55
2022/09/03 00:57:01;;;;;;;7.78;2.85;;;10.10;99.90;;;;;;4990567;28;20052;-55
2022/09/03 00:59:58;;;;;;;6.20;2.60;;;10.10;99.90;;;;;;4990407;28;20108;-56
2022/09/03 01:02:57;;;;;;;7.78;2.58;;;10.10;99.90;;;;;;5009176;28;20025;-56
2022/09/03 01:05:42;;;;;;;7.03;2.30;;;10.10;99.90;;;;;;5009376;28;20080;-56
2022/09/03 01:08:31;;;;;;;7.63;2.83;;;10.00;99.90;;;;;;5009664;28;20032;-55
2022/09/03 01:11:02;;;;;;;6.10;2.40;;;10.10;99.90;;;;;;5009252;28;20026;-56
2022/09/03 01:14:05;;;;;;;5.00;2.47;;;10.10;99.90;;;;;;5003224;28;20120;-56
2022/09/03 01:16:50;;;;;;;7.00;2.10;;;10.10;99.90;;;;;;4999683;28;20042;-55
2022/09/03 01:19:31;;;;;;;7.07;2.65;;;10.10;99.90;;;;;;5009528;28;20034;-56
2022/09/03 01:22:19;;;;;;;7.80;2.50;;;10.00;99.90;;;;;;4999238;28;20023;-56
2022/09/03 01:24:45;;;;;;;;;;;10.00;99.90;;;;;;5006793;28;20045;-56
2022/09/03 01:27:29;;;;;;;7.97;2.50;;;9.90;99.90;;;;;;5009115;28;19909;-55
2022/09/03 01:30:02;;;;;;;5.80;2.10;;;10.00;99.90;;;;;;4997679;28;20406;-56
2022/09/03 01:32:50;;;;;;;7.03;2.97;;;9.90;99.90;;;;;;4995456;28;20038;-55
2022/09/03 01:35:37;;;;;;;6.28;2.30;;;9.90;99.90;;;;;;4993341;28;20409;-56
2022/09/03 01:38:26;;;;;;;6.93;2.35;;;9.90;99.90;;;;;;4997506;28;20084;-55
2022/09/03 01:44:09;;;;;;;8.75;2.22;;;10.00;99.90;;;;;;4999306;28;20033;-56
2022/09/03 01:46:39;;;;;;;8.52;2.30;;;10.00;99.90;;;;;;4997273;28;20026;-55
2022/09/03 01:49:31;;;;;;;9.35;2.03;;;10.10;99.90;;;;;;4981665;28;20752;-56
2022/09/03 01:52:33;;;;;;;13.77;2.63;;;10.10;99.90;;;;;;4972588;28;20046;-56
2022/09/03 01:55:34;;;;;;;6.00;2.33;;;10.20;99.90;;;;;;5001923;28;20033;-55
2022/09/03 01:58:19;;;;;;;8.82;2.38;;;10.20;99.90;;;;;;4963245;28;20537;-56
2022/09/03 02:00:50;;;;;;;6.35;2.53;;;10.00;99.90;;;;;;5010697;28;20026;-56
2022/09/03 02:03:16;;;;;;;4.50;2.45;;;9.90;99.90;;;;;;5013154;28;20018;-54
2022/09/03 02:05:42;;;;;;;6.22;2.55;;;9.90;99.90;;;;;;5012680;28;20026;-54
2022/09/03 02:08:09;;;;;;;7.68;2.05;;;9.90;99.90;;;;;;5012933;28;20386;-55
2022/09/03 02:10:58;;;;;;;4.55;2.17;;;9.80;99.90;;;;;;5006317;28;20049;-56
2022/09/03 02:13:50;;;;;;;5.57;2.20;;;9.80;99.90;;;;;;5012813;28;20068;-56
2022/09/03 02:16:23;;;;;;;4.28;1.88;;;9.80;99.90;;;;;;5012581;28;20029;-56
2022/09/03 02:18:58;;;;;;;5.25;2.40;;;9.70;99.90;;;;;;5012811;28;20091;-55
2022/09/03 02:21:27;;;;;;;6.72;2.25;;;9.70;99.90;;;;;;5012373;28;20079;-55
2022/09/03 02:23:53;;;;;;;8.65;1.98;;;9.70;99.90;;;;;;4990153;28;20027;-56
2022/09/03 02:26:22;;;;;;;6.82;2.10;;;9.60;99.90;;;;;;4992871;28;20089;-56
2022/09/03 02:28:49;;;;;;;7.65;2.60;;;9.60;99.90;;;;;;4975298;28;20030;-55
2022/09/03 02:31:15;;;;;;;8.85;2.45;;;9.60;99.90;;;;;;4992947;28;20362;-56
2022/09/03 02:33:45;;;;;;;6.70;2.55;;;9.60;99.90;;;;;;4996010;28;20108;-56
2022/09/03 02:36:13;;;;;;;9.23;2.72;;;9.70;99.90;;;;;;4992484;28;20026;-55
2022/09/03 02:38:41;;;;;;;9.20;2.67;;;9.70;99.90;;;;;;4992769;28;20557;-56
2022/09/03 02:41:07;;;;;;;12.23;2.47;;;9.70;99.90;;;;;;4992332;28;20605;-55
2022/09/03 02:43:47;;;;;;;9.15;2.53;;;9.70;99.90;;;;;;4992708;28;20042;-55
2022/09/03 02:46:26;;;;;;;10.25;2.00;;;9.70;99.90;;;;;;5000423;28;20062;-56
2022/09/03 02:48:53;;;;;;;9.15;3.95;;;9.80;99.90;;;;;;5012183;28;20087;-54
2022/09/03 02:51:22;;;;;;;7.28;2.75;;;9.70;99.90;;;;;;5012154;28;20041;-54
2022/09/03 02:53:48;;;;;;;9.15;2.78;;;9.70;99.90;;;;;;5012082;28;20515;-56
2022/09/03 02:56:13;;;;;;;6.50;2.60;;;9.70;99.90;;;;;;5012014;28;20114;-55
2022/09/03 02:58:40;;;;;;;9.32;2.40;;;9.60;99.90;;;;;;4997061;28;20046;-56
2022/09/03 03:01:06;;;;;;;8.00;2.22;;;9.60;99.90;;;;;;4991771;28;20473;-55
2022/09/03 03:03:32;;;;;;;8.70;2.50;;;9.60;99.90;;;;;;4991720;28;20393;-55
2022/09/03 03:06:01;;;;;;;4.63;2.22;;;9.60;99.90;;;;;;4992452;28;20026;-54
2022/09/03 03:08:29;;;;;;;8.48;2.72;;;9.50;99.90;;;;;;4992222;28;20059;-55
2022/09/03 03:10:59;;;;;;;9.93;2.65;;;9.50;99.90;;;;;;4995850;28;20370;-54
2022/09/03 03:13:27;;;;;;;7.90;2.55;;;9.50;99.90;;;;;;4992213;28;20039;-54
2022/09/03 03:16:00;;;;;;;13.77;3.10;;;9.50;99.90;;;;;;4992130;28;20069;-54
2022/09/03 03:18:27;;;;;;;11.38;3.50;;;9.50;99.90;;;;;;4992214;28;20026;-54
2022/09/03 03:20:53;;;;;;;11.13;2.28;;;9.50;99.90;;;;;;4995054;28;20056;-54
2022/09/03 03:23:20;;;;;;;5.68;2.60;;;9.50;99.90;;;;;;4991870;28;20041;-54
2022/09/03 03:25:46;;;;;;;9.63;3.43;;;9.50;99.90;;;;;;4992185;28;20065;-55
2022/09/03 03:28:12;;;;;;;5.93;2.17;;;9.60;99.90;;;;;;4974597;28;20281;-55
2022/09/03 03:30:39;;;;;;;6.70;2.53;;;9.60;99.90;;;;;;4991527;28;20038;-55
2022/09/03 03:33:08;;;;;;;9.35;2.50;;;9.50;99.90;;;;;;4996916;28;20502;-55
2022/09/03 03:35:35;;;;;;;5.97;2.45;;;9.60;99.90;;;;;;5011388;28;20034;-55
2022/09/03 03:38:01;;;;;;;9.55;2.78;;;9.60;99.90;;;;;;5011237;28;20040;-56
2022/09/03 03:40:27;;;;;;;9.18;2.63;;;9.50;99.90;;;;;;4993061;28;20022;-56
2022/09/03 03:42:53;;;;;;;8.10;2.88;;;9.50;99.90;;;;;;5010854;28;20107;-56
2022/09/03 03:45:19;;;;;;;8.23;2.40;;;9.60;99.90;;;;;;5005516;28;20088;-56
2022/09/03 03:47:44;;;;;;;8.80;3.63;;;9.60;99.90;;;;;;5005367;28;20462;-56
2022/09/03 03:50:10;;;;;;;10.55;2.58;;;9.60;99.90;;;;;;4991142;28;20022;-56
2022/09/03 03:52:36;;;;;;;6.07;3.05;;;9.60;99.90;;;;;;4991300;28;20500;-55
2022/09/03 03:55:01;;;;;;;7.80;2.80;;;9.60;99.90;;;;;;4991352;28;20035;-55
2022/09/03 03:57:31;;;;;;;10.60;3.33;;;9.60;99.90;;;;;;4991566;28;20046;-56
2022/09/03 03:59:56;;;;;;;7.75;2.72;;;9.60;99.90;;;;;;4990714;28;20018;-56
2022/09/03 04:02:22;;;;;;;11.95;3.10;;;9.70;99.90;;;;;;5004043;28;20129;-55
2022/09/03 04:04:48;;;;;;;10.70;2.60;;;9.60;99.90;;;;;;4993031;28;20819;-56
2022/09/03 04:07:13;;;;;;;8.15;2.78;;;9.60;99.90;;;;;;5010772;28;20034;-56
2022/09/03 04:09:39;;;;;;;6.85;2.95;;;9.60;99.90;;;;;;5010313;28;20072;-56
2022/09/03 04:12:07;;;;;;;7.47;2.47;;;9.40;99.90;;;;;;5008978;28;20041;-55
2022/09/03 04:14:34;;;;;;;7.25;2.70;;;9.40;99.90;;;;;;5006719;28;20030;-56
2022/09/03 04:17:01;;;;;;;7.40;2.57;;;9.40;99.90;;;;;;5010595;28;20080;-56
2022/09/03 04:19:28;;;;;;;10.27;3.63;;;9.40;99.90;;;;;;5010693;28;20272;-56
2022/09/03 04:21:54;;;;;;;10.70;2.80;;;9.40;99.90;;;;;;5010594;28;20034;-55
2022/09/03 04:24:20;;;;;;;9.07;3.00;;;9.50;99.90;;;;;;4991703;28;20034;-55
2022/09/03 04:26:46;;;;;;;10.05;2.88;;;9.50;99.90;;;;;;5009610;28;20366;-55
2022/09/03 04:29:12;;;;;;;8.77;2.95;;;9.50;99.90;;;;;;5010400;28;20431;-55
2022/09/03 04:31:38;;;;;;;7.93;3.45;;;9.60;99.90;;;;;;5010063;28;20448;-55
2022/09/03 04:34:08;;;;;;;8.45;3.08;;;9.60;99.90;;;;;;5010597;28;20132;-55
2022/09/03 04:36:33;;;;;;;10.43;2.92;;;9.60;99.90;;;;;;5010181;28;20026;-55
2022/09/03 04:39:00;;;;;;;9.65;3.38;;;9.70;99.90;;;;;;5004040;28;20026;-55
2022/09/03 04:41:28;;;;;;;10.95;3.40;;;9.70;99.90;;;;;;5009986;28;20493;-55
2022/09/03 04:43:56;;;;;;;8.82;3.20;;;9.70;99.90;;;;;;5009974;28;20096;-54
2022/09/03 04:46:25;;;;;;;6.97;3.33;;;9.70;99.90;;;;;;5010209;28;20038;-54
2022/09/03 04:48:52;;;;;;;12.80;3.60;;;9.70;99.90;;;;;;5010213;28;20032;-55
2022/09/03 04:51:24;;;;;;;12.00;3.13;;;9.80;99.90;;;;;;5004076;28;20038;-55
2022/09/03 04:53:58;;;;;;;7.60;2.95;;;9.80;99.90;;;;;;5009880;28;20433;-55
2022/09/03 04:56:29;;;;;;;8.95;3.33;;;9.80;99.90;;;;;;5009697;28;20033;-55
2022/09/03 04:59:00;;;;;;;7.95;2.88;;;9.90;99.90;;;;;;5010085;28;20026;-55
2022/09/03 05:01:28;;;;;;;9.43;3.33;;;9.90;99.90;;;;;;5005707;28;20026;-55
2022/09/03 05:03:58;;;;;;;9.82;2.80;;;10.00;99.90;;;;;;5007600;28;20080;-55
2022/09/03 05:06:24;;;;;;;10.73;3.33;;;10.00;99.90;;;;;;5010024;28;20030;-55
2022/09/03 05:08:51;;;;;;;8.15;4.13;;;10.10;99.90;;;;;;5009633;28;20062;-55
2022/09/03 05:11:17;;;;;;;9.75;3.67;;;10.20;99.90;;;;;;5009413;28;20044;-55
2022/09/03 05:13:47;;;;;;;9.57;3.00;;;10.20;99.90;;;;;;5003550;28;20394;-54
2022/09/03 05:16:13;;;;;;;8.05;3.13;;;10.30;99.90;;;;;;5010093;28;20028;-56
2022/09/03 05:18:41;;;;;;;7.28;3.30;;;10.40;99.90;;;;;;5009663;28;20104;-55
2022/09/03 05:21:07;;;;;;;;;;;10.50;99.90;;;;;;5009943;28;20022;-55
2022/09/03 05:23:41;;;;;;;8.77;3.22;;;10.60;99.90;;;;;;5009557;28;19916;-54
2022/09/03 05:26:10;;;;;;;10.00;3.40;;;10.60;99.90;;;;;;5001389;28;20038;-54
2022/09/03 05:28:37;;;;;;;7.68;3.30;;;10.70;99.90;;;;;;5004305;28;20037;-55
2022/09/03 05:31:13;;;;;;;8.48;3.33;;;10.90;99.90;;;;;;5002127;28;20030;-55
2022/09/03 05:33:43;;;;;;;8.43;3.10;;;10.90;99.90;;;;;;5001851;28;20042;-55
2022/09/03 05:36:12;;;;;;;9.15;3.63;;;11.00;99.90;;;;;;4999656;28;20038;-56
2022/09/03 05:38:39;;;;;;;8.80;3.30;;;11.10;99.90;;;;;;4996799;28;20052;-55
2022/09/03 05:41:08;;;;;;;7.65;3.65;;;11.20;99.90;;;;;;5000856;28;20378;-55
2022/09/03 05:43:34;;;;;;;8.95;3.35;;;11.30;99.90;;;;;;5002197;28;20030;-56
2022/09/03 05:46:05;;;;;;;10.25;3.65;;;11.40;99.90;;;;;;5001668;28;20085;-55
2022/09/03 05:48:34;;;;;;;10.25;3.65;;;11.50;99.90;;;;;;4997505;28;20126;-54
2022/09/03 05:51:01;;;;;;;8.40;3.38;;;11.60;99.90;;;;;;4999637;28;20033;-55
2022/09/03 05:53:28;;;;;;;11.30;2.80;;;11.70;99.90;;;;;;5001153;28;20041;-55
2022/09/03 05:56:03;;;;;;;8.57;3.55;;;11.80;99.90;;;;;;5002313;28;20022;-55
2022/09/03 05:58:33;;;;;;;10.05;4.20;;;11.90;99.90;;;;;;4995889;28;20030;-55
2022/09/03 06:00:59;;;;;;;9.95;3.88;;;12.10;99.90;;;;;;4997132;28;20037;-53
2022/09/03 06:03:25;;;;;;;9.43;3.47;;;12.20;99.90;;;;;;4991510;28;20030;-57
2022/09/03 06:05:53;;;;;;;10.98;2.92;;;12.30;99.90;;;;;;4991351;28;20373;-54
2022/09/03 06:08:20;;;;;;;10.45;4.10;;;12.50;99.90;;;;;;4991372;28;20034;-55
2022/09/03 06:10:46;;;;;;;9.48;3.25;;;12.60;99.90;;;;;;4990806;28;20022;-54
2022/09/03 06:13:12;;;;;;;276.42;189.98;;;12.80;99.90;;;;;;4992044;28;20042;-55
2022/09/03 06:15:38;;;;;;;17.05;11.05;;;13.00;99.90;;;;;;4993836;28;20023;-55
2022/09/03 06:18:04;;;;;;;9.95;4.28;;;13.10;99.90;;;;;;4991997;28;20113;-55
2022/09/03 06:20:31;;;;;;;9.60;2.95;;;13.10;99.90;;;;;;4991740;28;20022;-54
2022/09/03 06:22:57;;;;;;;10.73;3.20;;;13.20;99.90;;;;;;4991614;28;20018;-53
2022/09/03 06:25:23;;;;;;;7.90;3.40;;;13.40;99.90;;;;;;4990601;28;20277;-54
2022/09/03 06:27:49;;;;;;;8.80;4.10;;;13.60;99.90;;;;;;4991269;28;20030;-54
2022/09/03 06:30:15;;;;;;;10.18;3.45;;;13.70;99.90;;;;;;4990422;28;20087;-55
2022/09/03 06:32:51;;;;;;;9.00;3.40;;;13.80;99.90;;;;;;4990404;28;20096;-54
2022/09/03 06:35:17;;;;;;;7.57;3.33;;;13.80;99.90;;;;;;4998565;28;20029;-54
2022/09/03 06:37:43;;;;;;;12.15;3.13;;;13.90;99.90;;;;;;4994675;28;20627;-54
2022/09/03 06:40:12;;;;;;;6.65;2.85;;;13.90;99.90;;;;;;4997490;28;20022;-53
2022/09/03 06:42:39;;;;;;;7.13;3.00;;;14.00;99.90;;;;;;4976105;28;20055;-54
2022/09/03 06:45:07;;;;;;;7.95;3.65;;;14.10;99.90;;;;;;4979734;28;20023;-54
2022/09/03 06:47:32;;;;;;;8.90;4.07;;;14.20;99.90;;;;;;4978437;28;20015;-54
2022/09/03 06:50:00;;;;;;;8.68;3.58;;;14.30;99.90;;;;;;4980970;28;20049;-55
2022/09/03 06:52:27;;;;;;;9.13;4.18;;;14.30;99.90;;;;;;4980015;28;20065;-55
2022/09/03 06:54:52;;;;;;;7.10;3.28;;;14.50;99.90;;;;;;4977316;28;20027;-56
2022/09/03 06:57:18;;;;;;;14.82;4.15;;;14.60;99.90;;;;;;4970034;28;20085;-55
2022/09/03 06:59:44;;;;;;;8.35;3.35;;;14.60;99.90;;;;;;4972918;28;20077;-56
2022/09/03 07:02:10;;;;;;;7.53;3.28;;;14.70;99.90;;;;;;4980076;28;20121;-56
2022/09/03 07:04:35;;;;;;;12.65;3.90;;;14.70;99.90;;;;;;4977458;28;20022;-55
2022/09/03 07:07:01;;;;;;;8.32;3.92;;;14.80;99.90;;;;;;4978112;28;20584;-54
2022/09/03 07:09:27;;;;;;;6.90;3.60;;;14.90;99.90;;;;;;4985383;28;20026;-55
2022/09/03 07:11:53;;;;;;;9.27;3.38;;;15.10;99.90;;;;;;4985034;28;20105;-55
2022/09/03 07:14:20;;;;;;;6.38;2.90;;;15.20;99.90;;;;;;4981207;28;20033;-55
2022/09/03 07:16:47;;;;;;;;;;;15.20;99.90;;;;;;4973996;28;20042;-55
2022/09/03 07:19:13;;;;;;;5.60;2.92;;;15.30;99.90;;;;;;4985576;28;19927;-55
2022/09/03 07:21:42;;;;;;;6.32;3.47;;;15.40;99.90;;;;;;4984799;28;20030;-53
2022/09/03 07:24:09;;;;;;;7.47;3.72;;;15.50;99.90;;;;;;4968312;28;20549;-55
2022/09/03 07:26:38;;;;;;;9.50;2.90;;;15.60;99.90;;;;;;4970287;28;20106;-55
2022/09/03 07:29:06;;;;;;;4.85;2.97;;;15.70;99.90;;;;;;4983035;28;20042;-55
2022/09/03 07:31:39;;;;;;;12.00;3.22;;;15.70;99.90;;;;;;4972389;28;20042;-54
2022/09/03 07:34:07;;;;;;;10.85;3.78;;;15.90;99.90;;;;;;4972814;28;20031;-54
2022/09/03 07:36:40;;;;;;;7.45;3.63;;;16.00;99.90;;;;;;4972495;28;20037;-55
2022/09/03 07:39:06;;;;;;;6.38;2.58;;;15.90;99.90;;;;;;4972295;28;20027;-56
2022/09/03 07:41:32;;;;;;;5.95;2.70;;;15.90;99.90;;;;;;4979822;28;20077;-55
2022/09/03 07:43:58;;;;;;;6.80;2.65;;;16.00;99.90;;;;;;4974160;28;20077;-55
2022/09/03 07:46:26;;;;;;;5.07;2.22;;;16.00;99.90;;;;;;4991756;28;20030;-55
2022/09/03 07:48:54;;;;;;;5.70;3.15;;;16.00;99.90;;;;;;4990845;28;20073;-55
2022/09/03 07:51:25;;;;;;;4.50;2.35;;;16.20;99.90;;;;;;4991224;28;20026;-55
2022/09/03 07:53:53;;;;;;;12.35;3.60;;;16.20;99.90;;;;;;4991561;28;20030;-55
2022/09/03 07:56:19;;;;;;;8.48;2.75;;;16.20;99.90;;;;;;4991881;28;20033;-55
2022/09/03 07:58:46;;;;;;;6.20;2.47;;;16.30;99.90;;;;;;4991487;28;20038;-54
2022/09/03 08:01:15;;;;;;;5.78;2.78;;;16.50;99.90;;;;;;4991264;28;20381;-55
2022/09/03 08:03:49;;;;;;;3.90;2.00;;;16.40;99.90;;;;;;4991203;28;20106;-55
2022/09/03 08:06:18;;;;;;;5.07;2.00;;;16.50;99.90;;;;;;4991083;28;20033;-55
2022/09/03 08:08:46;;;;;;;8.20;2.67;;;16.70;99.90;;;;;;4991309;28;20483;-55
2022/09/03 08:11:18;;;;;;;6.13;2.42;;;16.60;99.90;;;;;;4990689;28;20490;-55
2022/09/03 08:13:52;;;;;;;5.15;2.10;;;16.60;99.90;;;;;;4991213;28;20500;-55
2022/09/03 08:16:18;;;;;;;5.57;2.33;;;16.40;99.90;;;;;;4990935;28;20034;-55
2022/09/03 08:18:46;;;;;;;6.63;2.50;;;16.50;99.90;;;;;;4973701;28;20034;-55
2022/09/03 08:21:18;;;;;;;15.02;2.60;;;16.60;99.90;;;;;;4990630;28;20026;-55
2022/09/03 08:23:50;;;;;;;4.75;2.10;;;16.70;99.90;;;;;;4990936;28;20031;-55
2022/09/03 08:26:17;;;;;;;6.50;2.03;;;16.70;99.90;;;;;;4991046;28;20077;-55
2022/09/03 08:28:43;;;;;;;5.25;1.85;;;16.70;99.90;;;;;;4990670;28;20073;-55
2022/09/03 08:31:13;;;;;;;3.47;1.70;;;16.80;99.90;;;;;;4990390;28;20442;-55
2022/09/03 08:33:44;;;;;;;4.63;1.83;;;16.90;99.90;;;;;;4990726;28;20032;-55
2022/09/03 08:36:17;;;;;;;5.50;2.00;;;17.10;99.90;;;;;;4990846;28;20042;-55
2022/09/03 08:38:45;;;;;;;7.45;1.70;;;17.40;99.90;;;;;;4990447;28;20023;-55
2022/09/03 08:41:15;;;;;;;6.47;2.00;;;17.60;99.90;;;;;;4995352;28;20054;-55
2022/09/03 08:44:19;;;;;;;4.47;1.70;;;17.60;99.90;;;;;;5010156;28;20168;-56
2022/09/03 08:47:09;;;;;;;2.47;1.50;;;17.60;99.90;;;;;;4964661;28;20030;-55
2022/09/03 08:50:05;;;;;;;9.48;2.22;;;17.50;99.90;;;;;;5000848;28;20037;-55
2022/09/03 08:53:01;;;;;;;15.18;4.38;;;17.30;99.90;;;;;;5010046;28;20116;-55
2022/09/03 08:55:43;;;;;;;4.97;1.95;;;17.20;99.90;;;;;;4985277;28;20029;-55
2022/09/03 08:58:25;;;;;;;3.15;1.65;;;17.20;99.90;;;;;;5010088;28;20021;-55
2022/09/03 09:00:51;;;;;;;5.20;1.60;;;17.10;99.90;;;;;;5010015;28;20021;-55
2022/09/03 09:03:41;;;;;;;5.90;1.70;;;17.10;99.90;;;;;;5010063;28;20034;-55
2022/09/03 09:06:25;;;;;;;3.17;1.60;;;17.10;99.90;;;;;;5010131;28;20029;-55
2022/09/03 09:09:09;;;;;;;5.78;2.20;;;17.20;99.90;;;;;;5009700;28;20105;-55
2022/09/03 09:12:12;;;;;;;5.45;2.17;;;17.20;99.90;;;;;;5009547;28;20038;-55
2022/09/03 09:15:03;;;;;;;6.85;1.90;;;17.20;99.90;;;;;;5009568;28;20070;-55
2022/09/03 09:17:35;;;;;;;10.70;2.22;;;17.20;99.90;;;;;;5009940;28;20084;-55
2022/09/03 09:20:19;;;;;;;5.43;2.53;;;17.20;99.90;;;;;;4991610;28;20021;-55
2022/09/03 09:22:54;;;;;;;3.50;2.10;;;17.10;99.90;;;;;;5009730;28;20377;-55
2022/09/03 09:25:25;;;;;;;5.90;2.08;;;17.10;99.90;;;;;;5009545;28;20025;-55
2022/09/03 09:28:00;;;;;;;4.20;2.25;;;17.20;99.90;;;;;;5009617;28;20076;-55
2022/09/03 09:30:27;;;;;;;6.25;1.70;;;17.10;99.90;;;;;;5009707;28;20022;-55
2022/09/03 09:32:54;;;;;;;5.25;2.22;;;17.00;99.90;;;;;;5009641;28;20053;-55
2022/09/03 09:35:19;;;;;;;5.70;2.90;;;17.00;99.90;;;;;;5009673;28;20033;-55
2022/09/03 09:37:47;;;;;;;6.07;2.92;;;17.00;99.90;;;;;;5009973;28;20037;-54
2022/09/03 09:40:30;;;;;;;6.55;2.40;;;17.00;99.90;;;;;;5009400;28;20034;-54
2022/09/03 09:43:22;;;;;;;9.07;2.28;;;17.00;99.90;;;;;;4992924;28;20572;-56
2022/09/03 09:45:52;;;;;;;5.25;2.08;;;17.00;99.90;;;;;;5006711;28;20245;-55
2022/09/03 09:48:33;;;;;;;4.88;2.40;;;17.00;99.90;;;;;;5009745;28;20022;-55
2022/09/03 09:51:09;;;;;;;5.03;2.35;;;17.00;99.90;;;;;;5009353;28;20034;-55
2022/09/03 09:53:35;;;;;;;5.00;2.50;;;17.00;99.90;;;;;;5009509;28;20045;-54
2022/09/03 09:56:03;;;;;;;5.80;2.28;;;17.10;99.90;;;;;;5009435;28;20022;-55
2022/09/03 09:58:31;;;;;;;3.95;2.08;;;17.00;99.90;;;;;;5009275;28;20030;-55
2022/09/03 10:01:11;;;;;;;5.28;2.08;;;16.90;99.90;;;;;;5009200;28;20034;-55
2022/09/03 10:03:54;;;;;;;3.97;2.13;;;16.90;99.90;;;;;;5009531;28;20531;-55
2022/09/03 10:09:14;;;;;;;4.50;2.33;;;16.90;99.90;;;;;;5009533;28;20080;-55
2022/09/03 10:12:03;;;;;;;3.92;2.40;;;16.90;99.90;;;;;;5010496;28;20036;-55
2022/09/03 10:14:38;;;;;;;8.25;2.60;;;16.90;99.90;;;;;;5000573;28;20196;-55
2022/09/03 10:17:15;;;;;;;4.10;2.13;;;17.00;99.90;;;;;;5001370;28;20551;-56
2022/09/03 10:20:29;;;;;;;6.43;2.50;;;17.10;99.90;;;;;;4989844;28;20405;-54
2022/09/03 10:23:00;;;;;;;7.13;2.15;;;17.20;99.90;;;;;;4996322;28;20030;-55
2022/09/03 10:25:34;;;;;;;4.47;2.30;;;17.10;99.90;;;;;;5001890;28;20034;-55
2022/09/03 10:28:00;;;;;;;4.43;2.53;;;17.10;99.90;;;;;;4975326;28;20691;-55
2022/09/03 10:30:28;;;;;;;6.03;2.40;;;17.10;99.90;;;;;;4991569;28;20528;-55
2022/09/03 10:33:23;;;;;;;6.15;2.50;;;17.10;99.90;;;;;;4991391;28;20046;-55
2022/09/03 10:36:04;;;;;;;4.85;2.25;;;17.10;99.90;;;;;;4990496;28;20038;-55
2022/09/03 10:38:35;;;;;;;5.70;2.85;;;17.10;99.90;;;;;;4997696;28;20061;-54
2022/09/03 10:41:19;;;;;;;6.28;2.72;;;17.00;99.90;;;;;;4976614;28;20054;-55
2022/09/03 10:44:05;;;;;;;7.30;2.35;;;17.10;99.90;;;;;;4990976;28;20026;-55
2022/09/03 10:47:04;;;;;;;5.30;2.53;;;17.10;99.90;;;;;;4991386;28;20018;-55
2022/09/03 10:50:09;;;;;;;6.97;2.40;;;17.20;99.90;;;;;;4991259;28;20026;-55
2022/09/03 10:52:40;;;;;;;5.82;3.13;;;17.30;99.90;;;;;;4912122;29;20052;-55
2022/09/03 10:55:16;;;;;;;6.25;2.50;;;17.50;99.90;;;;;;4913281;29;20040;-56
2022/09/03 10:58:11;;;;;;;5.35;3.00;;;17.60;99.90;;;;;;4958945;28;20117;-55
2022/09/03 11:00:45;;;;;;;5.82;2.97;;;17.70;99.90;;;;;;4974613;28;20026;-56
2022/09/03 11:03:26;;;;;;;6.88;3.03;;;17.90;99.90;;;;;;4992349;28;20022;-55
2022/09/03 11:06:10;;;;;;;5.40;2.92;;;17.90;99.90;;;;;;4992681;28;20077;-55
2022/09/03 11:08:43;;;;;;;6.38;3.20;;;18.00;99.90;;;;;;4992326;28;20033;-55
2022/09/03 11:11:21;;;;;;;5.70;3.13;;;17.80;99.90;;;;;;4992172;28;20084;-55
2022/09/03 11:13:52;;;;;;;;;;;17.70;99.90;;;;;;4992968;28;20043;-55
2022/09/03 11:16:32;;;;;;;4.25;2.28;;;17.40;99.90;;;;;;4991687;28;19909;-54
2022/09/03 11:19:10;;;;;;;8.68;3.17;;;17.50;99.90;;;;;;4992327;28;20034;-55
2022/09/03 11:21:37;;;;;;;7.90;3.47;;;17.40;99.90;;;;;;4992109;28;20033;-55
2022/09/03 11:24:04;;;;;;;3.80;2.40;;;17.40;99.90;;;;;;4990282;28;20121;-55
2022/09/03 11:26:30;;;;;;;4.25;2.80;;;17.40;99.90;;;;;;4991003;28;20100;-55
2022/09/03 11:29:05;;;;;;;11.07;3.25;;;17.30;99.90;;;;;;4990347;28;20037;-55
2022/09/03 11:31:37;;;;;;;6.53;2.88;;;17.30;99.90;;;;;;4988553;28;20030;-55
2022/09/03 11:34:25;;;;;;;8.70;3.10;;;17.40;99.90;;;;;;4991044;28;20117;-55
2022/09/03 11:36:52;;;;;;;4.07;2.60;;;17.30;99.90;;;;;;4988475;28;20030;-55
2022/09/03 11:39:19;;;;;;;6.03;2.72;;;17.30;99.90;;;;;;4990868;28;20034;-55
2022/09/03 11:41:58;;;;;;;5.07;3.55;;;17.30;99.90;;;;;;4991565;28;20063;-55
2022/09/03 11:44:35;;;;;;;6.82;3.05;;;17.30;99.90;;;;;;4992227;28;20026;-55
2022/09/03 11:47:00;;;;;;;3.65;2.85;;;17.20;99.90;;;;;;4991772;28;20498;-54
2022/09/03 11:49:34;;;;;;;5.38;3.28;;;17.10;99.90;;;;;;4991848;28;20136;-55
2022/09/03 11:52:03;;;;;;;6.70;3.00;;;17.10;99.90;;;;;;4991320;28;20034;-55
2022/09/03 11:54:32;;;;;;;5.15;3.35;;;16.90;99.90;;;;;;4991566;28;20077;-55
2022/09/03 11:57:13;;;;;;;5.20;3.45;;;16.90;99.90;;;;;;4991559;28;20026;-55
2022/09/03 11:59:42;;;;;;;6.75;3.80;;;16.90;99.90;;;;;;4991231;28;20034;-55
2022/09/03 12:02:25;;;;;;;6.53;3.85;;;17.00;99.90;;;;;;4991465;28;20049;-55
2022/09/03 12:05:20;;;;;;;8.93;3.45;;;16.90;99.90;;;;;;4991381;28;20042;-55
2022/09/03 12:08:04;;;;;;;9.38;4.93;;;16.90;99.90;;;;;;4973842;28;20061;-55
2022/09/03 12:10:37;;;;;;;10.50;4.15;;;16.90;99.90;;;;;;4990205;28;20030;-55
2022/09/03 12:13:25;;;;;;;6.90;4.13;;;16.80;99.90;;;;;;4972571;28;20525;-55
2022/09/03 12:16:18;;;;;;;7.07;3.83;;;16.90;99.90;;;;;;4975573;28;20478;-54
2022/09/03 12:18:48;;;;;;;7.18;4.10;;;16.90;99.90;;;;;;4990283;28;20121;-53
2022/09/03 12:21:16;;;;;;;7.95;3.90;;;17.00;99.90;;;;;;4990522;28;20096;-54
2022/09/03 12:23:43;;;;;;;9.45;4.40;;;17.00;99.90;;;;;;4991079;28;20041;-54
2022/09/03 12:26:13;;;;;;;5.65;3.60;;;17.00;99.90;;;;;;4991532;28;20034;-55
2022/09/03 12:28:47;;;;;;;7.70;3.92;;;17.00;99.90;;;;;;4991011;28;20053;-55
2022/09/03 12:31:20;;;;;;;5.80;3.83;;;17.00;99.90;;;;;;4990547;28;20075;-55
2022/09/03 12:33:57;;;;;;;6.70;4.35;;;17.10;99.90;;;;;;4988885;28;20062;-55
2022/09/03 12:36:24;;;;;;;5.88;3.95;;;17.10;99.90;;;;;;4990905;28;20633;-55
2022/09/03 12:38:50;;;;;;;8.15;4.68;;;17.10;99.90;;;;;;4989663;28;20034;-55
2022/09/03 12:41:26;;;;;;;6.25;3.55;;;17.10;99.90;;;;;;4977335;28;20055;-55
2022/09/03 12:43:57;;;;;;;6.13;3.67;;;17.20;99.90;;;;;;4970370;28;20034;-54
2022/09/03 12:46:25;;;;;;;8.48;4.47;;;17.20;99.90;;;;;;4970529;28;20030;-55
2022/09/03 12:49:02;;;;;;;7.47;4.45;;;17.30;99.90;;;;;;4970239;28;20050;-54
2022/09/03 12:51:35;;;;;;;7.90;4.75;;;17.30;99.90;;;;;;4969982;28;20050;-54
2022/09/03 12:54:02;;;;;;;8.65;4.57;;;17.40;99.90;;;;;;4970846;28;20045;-55
2022/09/03 12:56:31;;;;;;;6.20;4.28;;;17.40;99.90;;;;;;4989246;28;20030;-54
2022/09/03 12:59:01;;;;;;;11.88;4.65;;;17.50;99.90;;;;;;4989155;28;20116;-54
2022/09/03 13:01:32;;;;;;;6.97;4.03;;;17.60;99.90;;;;;;4988465;28;20076;-55
2022/09/03 13:04:19;;;;;;;6.93;3.80;;;17.70;99.90;;;;;;4988062;28;20022;-55
2022/09/03 13:07:20;;;;;;;7.05;4.53;;;17.80;99.90;;;;;;4985868;28;20490;-55
2022/09/03 13:09:47;;;;;;;9.85;4.15;;;17.90;99.90;;;;;;4986297;28;20025;-55
2022/09/03 13:12:31;;;;;;;8.63;4.40;;;17.90;99.90;;;;;;4987683;28;20034;-55
2022/09/03 13:15:05;;;;;;;5.78;4.07;;;18.00;99.90;;;;;;4986854;28;20425;-55
2022/09/03 13:17:52;;;;;;;5.07;3.60;;;18.10;99.90;;;;;;4986303;28;20019;-55
2022/09/03 13:20:36;;;;;;;4.70;3.10;;;18.40;99.90;;;;;;4986827;28;20664;-53
2022/09/03 13:23:28;;;;;;;6.82;4.00;;;18.60;99.90;;;;;;4987687;28;20057;-53
2022/09/03 13:26:19;;;;;;;8.95;3.95;;;18.70;99.90;;;;;;4986475;28;20031;-54